createdAt,value
2022-10-18T00:00:07.763Z,2.65
2022-10-18T00:02:34.838Z,3.13
2022-10-18T00:05:01.865Z,2.40
2022-10-18T00:07:28.908Z,3.10
2022-10-18T00:09:56.105Z,2.45
2022-10-18T00:12:23.202Z,3.17
2022-10-18T00:14:51.171Z,3.75
2022-10-18T00:17:18.575Z,3.28
2022-10-18T00:19:46.753Z,3.30
2022-10-18T00:22:13.659Z,3.38
2022-10-18T00:24:40.696Z,3.40
2022-10-18T00:27:07.737Z,2.50
2022-10-18T00:29:34.943Z,2.55
2022-10-18T00:32:01.885Z,2.97
2022-10-18T00:34:28.779Z,2.38
2022-10-18T00:36:55.724Z,2.33
2022-10-18T00:39:22.920Z,2.58
2022-10-18T00:41:50.690Z,2.50
2022-10-18T00:44:17.437Z,2.60
2022-10-18T00:46:46.977Z,2.28
2022-10-18T00:49:16.544Z,3.45
2022-10-18T00:51:48.773Z,2.70
2022-10-18T00:54:18.220Z,2.38
2022-10-18T00:56:45.567Z,2.40
2022-10-18T00:59:15.334Z,2.42
2022-10-18T01:01:42.454Z,3.05
2022-10-18T01:04:09.577Z,2.33
2022-10-18T01:06:50.941Z,2.53
2022-10-18T01:09:41.876Z,2.47
2022-10-18T01:12:30.216Z,2.75
2022-10-18T01:15:21.181Z,2.70
2022-10-18T01:18:06.041Z,2.53
2022-10-18T01:20:46.395Z,2.22
2022-10-18T01:23:13.342Z,3.00
2022-10-18T01:25:57.294Z,3.30
2022-10-18T01:28:53.110Z,2.05
2022-10-18T01:31:31.933Z,2.03
2022-10-18T01:34:03.240Z,2.10
2022-10-18T01:36:35.190Z,2.42
2022-10-18T01:39:06.639Z,2.47
2022-10-18T01:41:36.247Z,2.72
2022-10-18T01:44:06.832Z,2.03
2022-10-18T01:46:34.149Z,1.90
2022-10-18T01:49:01.075Z,2.00
2022-10-18T01:51:31.761Z,1.92
2022-10-18T01:53:58.915Z,2.05
2022-10-18T01:56:55.240Z,2.22
2022-10-18T01:59:56.064Z,2.65
2022-10-18T02:02:35.164Z,1.87
2022-10-18T02:05:13.946Z,1.80
2022-10-18T02:08:18.749Z,1.85
2022-10-18T02:10:53.812Z,2.20
2022-10-18T02:13:24.796Z,2.20
2022-10-18T02:15:56.555Z,1.55
2022-10-18T02:18:32.147Z,1.90
2022-10-18T02:21:01.753Z,2.50
2022-10-18T02:23:28.694Z,2.75
2022-10-18T02:25:55.797Z,2.40
2022-10-18T02:28:25.938Z,2.47
2022-10-18T02:31:02.180Z,1.92
2022-10-18T02:33:46.583Z,2.53
2022-10-18T02:36:18.609Z,2.13
2022-10-18T02:38:46.771Z,2.60
2022-10-18T02:41:23.146Z,2.53
2022-10-18T02:43:49.929Z,2.45
2022-10-18T02:46:16.898Z,2.40
2022-10-18T02:48:43.832Z,2.17
2022-10-18T02:51:10.722Z,2.50
2022-10-18T02:53:37.602Z,2.35
2022-10-18T02:56:04.667Z,2.83
2022-10-18T02:58:31.553Z,2.33
2022-10-18T03:00:58.438Z,2.88
2022-10-18T03:03:25.438Z,3.15
2022-10-18T03:05:53.351Z,2.78
2022-10-18T03:08:20.359Z,2.53
2022-10-18T03:10:47.653Z,2.95
2022-10-18T03:13:14.553Z,2.42
2022-10-18T03:15:42.423Z,2.55
2022-10-18T03:18:09.622Z,2.78
2022-10-18T03:20:36.455Z,2.95
2022-10-18T03:23:03.620Z,2.78
2022-10-18T03:25:30.549Z,2.80
2022-10-18T03:27:57.341Z,3.08
2022-10-18T03:30:24.285Z,2.45
2022-10-18T03:32:51.286Z,3.25
2022-10-18T03:35:18.481Z,3.42
2022-10-18T03:37:45.229Z,3.42
2022-10-18T03:40:12.387Z,3.35
2022-10-18T03:42:39.432Z,2.85
2022-10-18T03:45:06.832Z,4.60
2022-10-18T03:47:33.780Z,2.70
2022-10-18T03:50:00.715Z,2.40
2022-10-18T03:52:28.174Z,2.97
2022-10-18T03:54:55.165Z,3.40
2022-10-18T03:57:22.074Z,3.05
2022-10-18T03:59:49.016Z,3.97
2022-10-18T04:02:15.915Z,3.72
2022-10-18T04:04:42.907Z,4.00
2022-10-18T04:07:09.844Z,3.67
2022-10-18T04:09:36.741Z,10.80
2022-10-18T04:12:03.691Z,8.50
2022-10-18T04:14:30.632Z,11.23
2022-10-18T04:16:57.469Z,9.40
2022-10-18T04:19:24.462Z,8.15
2022-10-18T04:21:51.258Z,9.63
2022-10-18T04:24:18.304Z,8.40
2022-10-18T04:26:45.255Z,9.90
2022-10-18T04:29:12.147Z,9.07
2022-10-18T04:31:39.042Z,8.77
2022-10-18T04:34:05.877Z,10.80
2022-10-18T04:36:32.733Z,10.27
2022-10-18T04:38:59.617Z,9.80
2022-10-18T04:41:26.713Z,11.55
2022-10-18T04:43:53.606Z,12.77
2022-10-18T04:46:20.352Z,10.77
2022-10-18T04:48:47.240Z,9.55
2022-10-18T04:51:14.185Z,9.18
2022-10-18T04:53:41.078Z,8.07
2022-10-18T04:56:08.382Z,7.93
2022-10-18T04:58:35.373Z,8.73
2022-10-18T05:01:08.264Z,10.80
2022-10-18T05:03:35.820Z,10.27
2022-10-18T05:06:03.521Z,10.27
2022-10-18T05:08:34.574Z,7.97
2022-10-18T05:11:02.132Z,8.70
2022-10-18T05:13:29.604Z,8.20
2022-10-18T05:15:56.549Z,8.05
2022-10-18T05:18:23.465Z,7.65
2022-10-18T05:20:50.375Z,9.63
2022-10-18T05:23:17.372Z,7.65
2022-10-18T05:25:44.571Z,6.72
2022-10-18T05:28:34.711Z,6.05
2022-10-18T05:31:06.579Z,6.40
2022-10-18T05:33:34.085Z,5.40
2022-10-18T05:36:01.637Z,5.78
2022-10-18T05:38:31.283Z,5.50
2022-10-18T05:40:59.373Z,7.90
2022-10-18T05:43:29.949Z,5.50
2022-10-18T05:45:56.849Z,5.43
2022-10-18T05:48:23.734Z,6.20
2022-10-18T05:50:51.398Z,6.03
2022-10-18T05:53:35.829Z,7.90
2022-10-18T05:56:04.385Z,8.45
2022-10-18T05:58:31.440Z,8.45
2022-10-18T06:01:02.372Z,7.93
2022-10-18T06:03:31.023Z,8.02
2022-10-18T06:06:07.274Z,8.60
2022-10-18T06:08:35.312Z,9.30
2022-10-18T06:11:15.453Z,11.55
2022-10-18T06:13:47.262Z,6.20
2022-10-18T06:16:15.768Z,5.60
2022-10-18T06:18:43.093Z,4.28
2022-10-18T06:21:10.336Z,4.40
2022-10-18T06:23:37.096Z,4.47
2022-10-18T06:26:07.711Z,4.78
2022-10-18T06:28:36.204Z,4.35
2022-10-18T06:31:04.526Z,4.45
2022-10-18T06:33:32.551Z,3.88
2022-10-18T06:36:03.792Z,3.50
2022-10-18T06:38:30.946Z,4.10
2022-10-18T06:40:58.493Z,3.65
2022-10-18T06:43:26.206Z,4.00
2022-10-18T06:45:53.509Z,3.38
2022-10-18T06:48:21.239Z,4.03
2022-10-18T06:50:59.142Z,5.28
2022-10-18T06:53:28.835Z,5.70
2022-10-18T06:56:07.606Z,5.55
2022-10-18T06:58:35.680Z,4.07
2022-10-18T07:01:13.831Z,4.25
2022-10-18T07:03:40.728Z,4.60
2022-10-18T07:06:09.267Z,4.70
2022-10-18T07:08:36.624Z,3.97
2022-10-18T07:11:04.280Z,3.97
2022-10-18T07:13:33.627Z,4.15
2022-10-18T07:16:11.589Z,3.85
2022-10-18T07:18:43.557Z,3.90
2022-10-18T07:21:12.964Z,4.57
2022-10-18T07:23:42.091Z,4.00
2022-10-18T07:26:20.762Z,4.00
2022-10-18T07:28:50.945Z,3.80
2022-10-18T07:31:18.497Z,4.13
2022-10-18T07:33:45.463Z,4.55
2022-10-18T07:36:13.403Z,4.22
2022-10-18T07:38:40.869Z,4.00
2022-10-18T07:41:11.403Z,5.07
2022-10-18T07:43:42.277Z,4.70
2022-10-18T07:46:09.530Z,4.20
2022-10-18T07:48:36.377Z,3.95
2022-10-18T07:51:04.602Z,4.15
2022-10-18T07:53:32.528Z,3.38
2022-10-18T07:56:07.273Z,2.63
2022-10-18T07:58:36.396Z,2.95
2022-10-18T08:01:07.893Z,2.92
2022-10-18T08:03:35.667Z,2.45
2022-10-18T08:06:03.425Z,2.65
2022-10-18T08:08:30.324Z,2.80
2022-10-18T08:11:03.672Z,2.40
2022-10-18T08:13:31.015Z,2.42
2022-10-18T08:16:06.823Z,2.05
2022-10-18T08:18:34.688Z,2.53
2022-10-18T08:21:05.877Z,2.50
2022-10-18T08:23:33.689Z,2.58
2022-10-18T08:26:09.440Z,2.25
2022-10-18T08:28:39.507Z,2.33
2022-10-18T08:31:17.475Z,2.15
2022-10-18T08:33:44.568Z,2.03
2022-10-18T08:36:15.004Z,2.50
2022-10-18T08:38:42.657Z,1.92
2022-10-18T08:41:34.395Z,1.58
2022-10-18T08:44:21.960Z,2.38
2022-10-18T08:46:52.176Z,1.63
2022-10-18T08:49:31.978Z,1.85
2022-10-18T08:51:59.274Z,1.85
2022-10-18T08:54:30.273Z,1.88
2022-10-18T08:57:01.580Z,2.50
2022-10-18T08:59:38.695Z,1.80
2022-10-18T09:02:44.099Z,4.15
2022-10-18T09:05:14.579Z,4.18
2022-10-18T09:08:09.931Z,3.43
2022-10-18T09:10:55.384Z,3.05
2022-10-18T09:13:40.490Z,2.53
2022-10-18T09:16:16.598Z,3.20
2022-10-18T09:19:10.283Z,3.05
2022-10-18T09:21:49.244Z,1.88
2022-10-18T09:25:00.529Z,2.72
2022-10-18T09:27:55.177Z,2.70
2022-10-18T09:30:49.710Z,2.10
2022-10-18T09:33:39.361Z,3.38
2022-10-18T09:36:09.758Z,2.83
2022-10-18T09:38:49.933Z,2.30
2022-10-18T09:41:26.077Z,2.67
2022-10-18T09:44:07.009Z,2.80
2022-10-18T09:46:39.175Z,2.60
2022-10-18T09:49:34.335Z,3.20
2022-10-18T09:52:06.908Z,2.35
2022-10-18T09:54:33.771Z,2.60
2022-10-18T09:57:12.899Z,2.60
2022-10-18T09:59:46.996Z,2.85
2022-10-18T10:02:16.863Z,2.92
2022-10-18T10:04:44.058Z,2.17
2022-10-18T10:07:24.939Z,2.53
2022-10-18T10:10:13.323Z,2.50
2022-10-18T10:12:41.503Z,2.15
2022-10-18T10:15:28.282Z,2.88
2022-10-18T10:18:07.241Z,2.47
2022-10-18T10:20:44.218Z,2.83
2022-10-18T10:23:20.334Z,2.45
2022-10-18T10:25:56.435Z,2.42
2022-10-18T10:28:33.529Z,2.53
2022-10-18T10:31:24.546Z,2.50
2022-10-18T10:34:05.044Z,2.63
2022-10-18T10:36:33.625Z,2.97
2022-10-18T10:39:08.322Z,2.45
2022-10-18T10:41:35.607Z,2.60
2022-10-18T10:44:05.209Z,2.67
2022-10-18T10:46:36.823Z,2.50
2022-10-18T10:49:35.079Z,2.65
2022-10-18T10:52:27.491Z,2.13
2022-10-18T10:57:47.640Z,2.88
2022-10-18T11:00:46.903Z,3.22
2022-10-18T11:03:28.417Z,2.47
2022-10-18T11:05:58.089Z,3.58
2022-10-18T11:08:30.769Z,2.33
2022-10-18T11:11:27.948Z,1.90
2022-10-18T11:14:25.802Z,2.63
2022-10-18T11:17:14.252Z,2.22
2022-10-18T11:19:58.906Z,2.72
2022-10-18T11:22:30.144Z,3.03
2022-10-18T11:24:57.363Z,1.95
2022-10-18T11:27:37.924Z,2.42
2022-10-18T11:30:16.282Z,2.23
2022-10-18T11:33:09.593Z,1.92
2022-10-18T11:35:47.702Z,3.33
2022-10-18T11:38:42.236Z,2.58
2022-10-18T11:41:20.252Z,2.75
2022-10-18T11:44:02.577Z,3.17
2022-10-18T11:46:51.570Z,3.60
2022-10-18T11:49:46.359Z,4.43
2022-10-18T11:52:27.995Z,4.75
2022-10-18T11:55:19.209Z,3.78
2022-10-18T11:57:49.288Z,4.45
2022-10-18T12:03:11.588Z,3.35
2022-10-18T12:05:41.489Z,3.47
2022-10-18T12:08:20.695Z,2.65
2022-10-18T12:11:05.581Z,3.30
2022-10-18T12:13:43.906Z,2.10
2022-10-18T12:16:12.555Z,2.28
2022-10-18T12:21:25.855Z,2.35
2022-10-18T12:23:58.469Z,2.83
2022-10-18T12:26:28.576Z,2.63
2022-10-18T12:29:14.420Z,2.70
2022-10-18T12:31:52.998Z,3.63
2022-10-18T12:34:22.758Z,2.88
2022-10-18T12:37:01.472Z,2.92
2022-10-18T12:39:43.662Z,3.47
2022-10-18T12:42:22.962Z,3.60
2022-10-18T12:45:00.268Z,4.70
2022-10-18T12:47:29.723Z,3.72
2022-10-18T12:50:04.127Z,4.60
2022-10-18T12:52:34.082Z,3.78
2022-10-18T12:55:19.565Z,3.92
2022-10-18T12:57:52.295Z,3.67
2022-10-18T13:00:31.244Z,3.83
2022-10-18T13:03:10.460Z,3.92
2022-10-18T13:05:55.206Z,4.30
2022-10-18T13:08:34.710Z,3.47
2022-10-18T13:11:01.450Z,3.28
2022-10-18T13:13:44.468Z,2.72
2022-10-18T13:16:14.286Z,3.33
2022-10-18T13:18:57.251Z,2.72
2022-10-18T13:21:41.817Z,2.65
2022-10-18T13:24:29.449Z,2.15
2022-10-18T13:27:36.562Z,3.08
2022-10-18T13:30:18.897Z,3.00
2022-10-18T13:33:09.791Z,2.13
2022-10-18T13:35:56.000Z,2.30
2022-10-18T13:39:03.874Z,2.28
2022-10-18T13:41:56.507Z,2.40
2022-10-18T13:44:40.024Z,2.67
2022-10-18T13:47:07.220Z,2.50
2022-10-18T13:49:39.861Z,2.83
2022-10-18T13:52:15.906Z,2.42
2022-10-18T13:55:27.346Z,2.42
2022-10-18T13:58:15.656Z,2.30
2022-10-18T14:00:55.186Z,2.70
2022-10-18T14:03:56.166Z,2.40
2022-10-18T14:06:27.124Z,2.97
2022-10-18T14:09:26.141Z,2.70
2022-10-18T14:12:12.201Z,3.47
2022-10-18T14:14:46.426Z,3.03
2022-10-18T14:17:19.814Z,2.78
2022-10-18T14:19:54.037Z,3.42
2022-10-18T14:22:25.586Z,3.25
2022-10-18T14:24:55.652Z,3.08
2022-10-18T14:27:25.060Z,2.20
2022-10-18T14:30:13.156Z,2.92
2022-10-18T14:32:50.020Z,2.35
2022-10-18T14:35:35.916Z,3.45
2022-10-18T14:38:03.320Z,3.28
2022-10-18T14:40:33.037Z,2.60
2022-10-18T14:43:05.609Z,2.45
2022-10-18T14:45:32.496Z,2.90
2022-10-18T14:48:24.020Z,2.03
2022-10-18T14:53:36.196Z,2.05
2022-10-18T14:56:10.093Z,2.67
2022-10-18T14:58:38.284Z,3.38
2022-10-18T15:01:05.754Z,3.20
2022-10-18T15:03:35.909Z,2.70
2022-10-18T15:06:05.660Z,2.90
2022-10-18T15:08:40.499Z,2.33
2022-10-18T15:11:11.845Z,2.35
2022-10-18T15:14:03.306Z,2.60
2022-10-18T15:16:32.713Z,1.95
2022-10-18T15:19:07.378Z,2.03
2022-10-18T15:21:37.155Z,2.00
2022-10-18T15:24:30.262Z,1.98
2022-10-18T15:27:02.369Z,2.25
2022-10-18T15:29:33.469Z,2.10
2022-10-18T15:32:09.113Z,1.80
2022-10-18T15:34:36.213Z,1.60
2022-10-18T15:37:35.433Z,2.10
2022-10-18T15:40:21.609Z,1.70
2022-10-18T15:42:53.476Z,1.75
2022-10-18T15:45:27.680Z,2.17
2022-10-18T15:48:03.283Z,2.28
2022-10-18T15:50:53.527Z,2.47
2022-10-18T15:53:23.794Z,2.50
2022-10-18T15:56:00.013Z,2.40
2022-10-18T15:58:44.054Z,1.92
2022-10-18T16:01:17.467Z,1.70
2022-10-18T16:03:46.667Z,1.33
2022-10-18T16:06:18.083Z,2.00
2022-10-18T16:08:50.423Z,2.08
2022-10-18T16:11:19.775Z,1.40
2022-10-18T16:13:47.532Z,2.22
2022-10-18T16:16:18.328Z,1.50
2022-10-18T16:18:45.422Z,1.77
2022-10-18T16:21:26.755Z,2.08
2022-10-18T16:26:21.719Z,1.73
2022-10-18T16:28:49.550Z,1.20
2022-10-18T16:31:29.275Z,1.70
2022-10-18T16:33:57.292Z,1.70
2022-10-18T16:36:27.003Z,1.63
2022-10-18T16:38:55.332Z,1.88
2022-10-18T16:41:22.904Z,2.33
2022-10-18T16:43:50.407Z,1.92
2022-10-18T16:46:28.095Z,1.75
2022-10-18T16:48:55.609Z,1.73
2022-10-18T16:51:22.813Z,1.48
2022-10-18T16:53:49.967Z,1.75
2022-10-18T16:56:25.915Z,1.50
2022-10-18T16:58:53.529Z,1.75
2022-10-18T17:01:22.629Z,2.90
2022-10-18T17:03:52.334Z,2.08
2022-10-18T17:06:25.466Z,2.00
2022-10-18T17:08:54.312Z,2.03
2022-10-18T17:11:22.837Z,1.73
2022-10-18T17:13:50.093Z,2.75
2022-10-18T17:16:31.751Z,1.85
2022-10-18T17:19:01.743Z,2.10
2022-10-18T17:21:29.867Z,2.50
2022-10-18T17:24:03.190Z,2.25
2022-10-18T17:26:30.809Z,2.03
2022-10-18T17:29:08.447Z,2.10
2022-10-18T17:31:35.991Z,2.50
2022-10-18T17:34:03.536Z,2.33
2022-10-18T17:36:32.385Z,2.30
2022-10-18T17:38:59.212Z,2.50
2022-10-18T17:41:26.475Z,2.17
2022-10-18T17:43:53.624Z,1.77
2022-10-18T17:46:20.681Z,1.40
2022-10-18T17:48:47.877Z,1.35
2022-10-18T17:51:17.172Z,1.23
2022-10-18T17:53:44.580Z,1.30
2022-10-18T17:56:12.853Z,1.33
2022-10-18T17:58:40.154Z,1.80
2022-10-18T18:01:15.250Z,1.50
2022-10-18T18:03:42.943Z,2.20
2022-10-18T18:06:36.736Z,1.52
2022-10-18T18:09:08.542Z,1.95
2022-10-18T18:11:37.038Z,1.70
2022-10-18T18:14:09.326Z,1.48
2022-10-18T18:16:41.715Z,1.42
2022-10-18T18:19:10.035Z,2.00
2022-10-18T18:21:38.160Z,1.90
2022-10-18T18:24:05.314Z,1.33
2022-10-18T18:26:33.584Z,1.60
2022-10-18T18:31:38.621Z,1.50
2022-10-18T18:34:09.989Z,1.67
2022-10-18T18:36:37.193Z,1.35
2022-10-18T18:39:05.755Z,1.50
2022-10-18T18:41:33.395Z,1.27
2022-10-18T18:44:02.270Z,2.08
2022-10-18T18:46:33.313Z,1.20
2022-10-18T18:49:00.829Z,1.10
2022-10-18T18:51:28.594Z,3.03
2022-10-18T18:53:55.594Z,1.40
2022-10-18T18:56:24.319Z,1.17
2022-10-18T18:58:52.299Z,1.50
2022-10-18T19:01:21.736Z,1.77
2022-10-18T19:03:50.486Z,1.55
2022-10-18T19:06:23.515Z,1.50
2022-10-18T19:08:52.814Z,1.98
2022-10-18T19:11:22.485Z,1.30
2022-10-18T19:13:49.932Z,1.90
2022-10-18T19:16:28.291Z,1.77
2022-10-18T19:18:57.080Z,1.90
2022-10-18T19:21:25.824Z,1.58
2022-10-18T19:23:53.697Z,2.55
2022-10-18T19:26:54.423Z,2.03
2022-10-18T19:29:24.795Z,2.20
2022-10-18T19:31:53.848Z,2.10
2022-10-18T19:34:22.273Z,2.00
2022-10-18T19:36:50.088Z,1.60
2022-10-18T19:39:34.342Z,1.23
2022-10-18T19:42:03.841Z,2.00
2022-10-18T19:44:33.150Z,2.08
2022-10-18T19:47:00.807Z,1.40
2022-10-18T19:49:28.928Z,2.17
2022-10-18T19:51:56.805Z,2.35
2022-10-18T19:54:24.616Z,3.05
2022-10-18T19:56:51.876Z,2.50
2022-10-18T19:59:19.380Z,3.10
2022-10-18T20:01:46.457Z,1.90
2022-10-18T20:04:13.928Z,1.90
2022-10-18T20:06:41.689Z,1.27
2022-10-18T20:09:12.353Z,1.60
2022-10-18T20:11:41.876Z,1.30
2022-10-18T20:14:10.989Z,1.30
2022-10-18T20:16:37.869Z,1.42
2022-10-18T20:19:07.523Z,1.05
2022-10-18T20:21:36.173Z,0.93
2022-10-18T20:24:07.146Z,1.20
2022-10-18T20:26:36.120Z,1.05
2022-10-18T20:29:04.178Z,1.50
2022-10-18T20:31:33.981Z,1.20
2022-10-18T20:34:02.765Z,1.30
2022-10-18T20:36:31.346Z,1.05
2022-10-18T20:38:59.063Z,1.60
2022-10-18T20:41:28.624Z,1.00
2022-10-18T20:43:58.848Z,1.38
2022-10-18T20:46:27.725Z,1.80
2022-10-18T20:48:54.992Z,0.90
2022-10-18T20:51:23.201Z,1.60
2022-10-18T20:53:50.409Z,1.30
2022-10-18T20:56:22.687Z,1.10
2022-10-18T20:58:51.674Z,1.20
2022-10-18T21:01:21.351Z,0.85
2022-10-18T21:03:50.326Z,1.23
2022-10-18T21:06:19.672Z,1.10
2022-10-18T21:08:46.977Z,1.20
2022-10-18T21:11:14.582Z,1.02
2022-10-18T21:13:41.420Z,1.40
2022-10-18T21:16:08.275Z,1.13
2022-10-18T21:18:37.059Z,1.20
2022-10-18T21:21:14.538Z,1.25
2022-10-18T21:23:43.297Z,2.00
2022-10-18T21:26:24.828Z,1.30
2022-10-18T21:28:53.955Z,0.95
2022-10-18T21:31:23.583Z,1.15
2022-10-18T21:33:58.769Z,1.73
2022-10-18T21:36:26.785Z,1.90
2022-10-18T21:38:53.842Z,1.35
2022-10-18T21:41:22.375Z,2.03
2022-10-18T21:43:52.392Z,1.15
2022-10-18T21:46:21.588Z,1.27
2022-10-18T21:48:50.994Z,0.90
2022-10-18T21:51:19.985Z,1.40
2022-10-18T21:53:48.768Z,1.38
2022-10-18T21:56:21.602Z,0.90
2022-10-18T21:58:48.749Z,1.40
2022-10-18T22:01:18.232Z,1.10
2022-10-18T22:03:46.223Z,1.65
2022-10-18T22:06:15.379Z,1.58
2022-10-18T22:08:50.761Z,1.25
2022-10-18T22:11:19.958Z,1.30
2022-10-18T22:13:47.160Z,1.40
2022-10-18T22:16:16.662Z,1.55
2022-10-18T22:18:45.090Z,1.13
2022-10-18T22:21:14.087Z,2.28
2022-10-18T22:23:44.001Z,1.50
2022-10-18T22:26:16.690Z,1.45
2022-10-18T22:28:45.144Z,1.25
2022-10-18T22:31:21.126Z,1.58
2022-10-18T22:33:54.206Z,1.17
2022-10-18T22:36:21.252Z,1.58
2022-10-18T22:38:48.145Z,1.45
2022-10-18T22:41:15.096Z,1.52
2022-10-18T22:43:42.397Z,1.60
2022-10-18T22:46:11.901Z,1.52
2022-10-18T22:48:39.304Z,1.65
2022-10-18T22:51:06.875Z,1.85
2022-10-18T22:53:34.332Z,1.77
2022-10-18T22:56:01.420Z,1.90
2022-10-18T22:58:28.625Z,1.85
2022-10-18T23:01:07.349Z,1.60
2022-10-18T23:03:34.511Z,2.33
2022-10-18T23:06:02.054Z,2.17
2022-10-18T23:08:29.715Z,1.90
2022-10-18T23:10:59.066Z,2.17
2022-10-18T23:13:27.157Z,1.95
2022-10-18T23:15:54.131Z,1.52
2022-10-18T23:18:20.980Z,1.70
2022-10-18T23:20:47.774Z,2.15
2022-10-18T23:23:14.651Z,1.73
2022-10-18T23:25:41.509Z,2.35
2022-10-18T23:28:08.399Z,2.90
2022-10-18T23:30:38.320Z,2.00
2022-10-18T23:33:05.157Z,2.17
2022-10-18T23:35:31.893Z,1.92
2022-10-18T23:37:58.839Z,2.70
2022-10-18T23:40:25.739Z,2.30
2022-10-18T23:42:52.627Z,2.08
2022-10-18T23:45:19.580Z,2.83
2022-10-18T23:47:46.465Z,2.42
2022-10-18T23:50:13.313Z,1.88
2022-10-18T23:52:40.212Z,2.50
2022-10-18T23:55:07.718Z,2.55
2022-10-18T23:57:34.710Z,2.58
